sensor_id;sensor_type;location;lat;lon;timestamp;P1;durP1;ratioP1;P2;durP2;ratioP2
59159;SDS011;44941;45.058;20.076;2023-10-08T00:00:23;17.17;;;8.82;;
59159;SDS011;44941;45.058;20.076;2023-10-08T00:03:08;21.08;;;9.32;;
59159;SDS011;44941;45.058;20.076;2023-10-08T00:05:38;19.27;;;8.87;;
59159;SDS011;44941;45.058;20.076;2023-10-08T00:08:05;16.92;;;8.32;;
59159;SDS011;44941;45.058;20.076;2023-10-08T00:10:38;14.68;;;7.97;;
59159;SDS011;44941;45.058;20.076;2023-10-08T00:13:06;16.58;;;8.65;;
59159;SDS011;44941;45.058;20.076;2023-10-08T00:15:35;15.63;;;7.82;;
59159;SDS011;44941;45.058;20.076;2023-10-08T00:18:04;17.90;;;8.50;;
59159;SDS011;44941;45.058;20.076;2023-10-08T00:20:40;18.98;;;8.75;;
59159;SDS011;44941;45.058;20.076;2023-10-08T00:23:28;13.52;;;6.85;;
59159;SDS011;44941;45.058;20.076;2023-10-08T00:25:55;17.00;;;7.68;;
59159;SDS011;44941;45.058;20.076;2023-10-08T00:28:23;14.02;;;7.22;;
59159;SDS011;44941;45.058;20.076;2023-10-08T00:30:49;16.25;;;7.07;;
59159;SDS011;44941;45.058;20.076;2023-10-08T00:33:19;14.32;;;6.65;;
59159;SDS011;44941;45.058;20.076;2023-10-08T00:35:45;15.85;;;6.72;;
59159;SDS011;44941;45.058;20.076;2023-10-08T00:38:12;13.02;;;6.43;;
59159;SDS011;44941;45.058;20.076;2023-10-08T00:40:45;12.35;;;6.53;;
59159;SDS011;44941;45.058;20.076;2023-10-08T00:45:40;15.50;;;6.47;;
59159;SDS011;44941;45.058;20.076;2023-10-08T00:48:09;19.25;;;7.18;;
59159;SDS011;44941;45.058;20.076;2023-10-08T00:50:42;13.43;;;6.97;;
59159;SDS011;44941;45.058;20.076;2023-10-08T00:53:09;16.13;;;7.47;;
59159;SDS011;44941;45.058;20.076;2023-10-08T00:55:49;12.00;;;6.47;;
59159;SDS011;44941;45.058;20.076;2023-10-08T00:58:18;12.38;;;6.63;;
59159;SDS011;44941;45.058;20.076;2023-10-08T01:00:58;13.90;;;6.22;;
59159;SDS011;44941;45.058;20.076;2023-10-08T01:03:25;12.98;;;6.03;;
59159;SDS011;44941;45.058;20.076;2023-10-08T01:05:53;12.70;;;6.85;;
59159;SDS011;44941;45.058;20.076;2023-10-08T01:08:19;13.45;;;7.10;;
59159;SDS011;44941;45.058;20.076;2023-10-08T01:11:15;14.00;;;6.43;;
59159;SDS011;44941;45.058;20.076;2023-10-08T01:13:41;12.02;;;6.18;;
59159;SDS011;44941;45.058;20.076;2023-10-08T01:16:09;13.00;;;6.78;;
59159;SDS011;44941;45.058;20.076;2023-10-08T01:18:35;14.20;;;6.40;;
59159;SDS011;44941;45.058;20.076;2023-10-08T01:21:07;12.98;;;5.90;;
59159;SDS011;44941;45.058;20.076;2023-10-08T01:23:36;11.43;;;5.85;;
59159;SDS011;44941;45.058;20.076;2023-10-08T01:26:03;16.52;;;6.25;;
59159;SDS011;44941;45.058;20.076;2023-10-08T01:28:36;12.02;;;6.45;;
59159;SDS011;44941;45.058;20.076;2023-10-08T01:31:03;14.73;;;5.65;;
59159;SDS011;44941;45.058;20.076;2023-10-08T01:33:29;11.50;;;5.80;;
59159;SDS011;44941;45.058;20.076;2023-10-08T01:36:12;12.38;;;5.88;;
59159;SDS011;44941;45.058;20.076;2023-10-08T01:38:38;14.02;;;5.75;;
59159;SDS011;44941;45.058;20.076;2023-10-08T01:43:43;11.23;;;5.57;;
59159;SDS011;44941;45.058;20.076;2023-10-08T01:46:09;11.43;;;5.88;;
59159;SDS011;44941;45.058;20.076;2023-10-08T01:48:36;11.65;;;5.40;;
59159;SDS011;44941;45.058;20.076;2023-10-08T01:51:03;12.30;;;5.70;;
59159;SDS011;44941;45.058;20.076;2023-10-08T01:53:35;15.32;;;6.45;;
59159;SDS011;44941;45.058;20.076;2023-10-08T01:56:01;12.90;;;5.25;;
59159;SDS011;44941;45.058;20.076;2023-10-08T01:58:29;12.57;;;5.53;;
59159;SDS011;44941;45.058;20.076;2023-10-08T02:00:55;13.77;;;5.60;;
59159;SDS011;44941;45.058;20.076;2023-10-08T02:03:25;11.43;;;5.80;;
59159;SDS011;44941;45.058;20.076;2023-10-08T02:05:55;14.38;;;6.13;;
59159;SDS011;44941;45.058;20.076;2023-10-08T02:08:24;14.70;;;5.28;;
59159;SDS011;44941;45.058;20.076;2023-10-08T02:10:51;12.47;;;5.50;;
59159;SDS011;44941;45.058;20.076;2023-10-08T02:13:18;14.05;;;5.75;;
59159;SDS011;44941;45.058;20.076;2023-10-08T02:15:45;13.43;;;5.32;;
59159;SDS011;44941;45.058;20.076;2023-10-08T02:18:12;11.15;;;5.72;;
59159;SDS011;44941;45.058;20.076;2023-10-08T02:20:39;14.98;;;5.47;;
59159;SDS011;44941;45.058;20.076;2023-10-08T02:23:05;11.75;;;5.43;;
59159;SDS011;44941;45.058;20.076;2023-10-08T02:25:31;12.60;;;5.60;;
59159;SDS011;44941;45.058;20.076;2023-10-08T02:28:01;12.02;;;5.60;;
59159;SDS011;44941;45.058;20.076;2023-10-08T02:30:27;11.25;;;5.32;;
59159;SDS011;44941;45.058;20.076;2023-10-08T02:32:53;13.07;;;5.55;;
59159;SDS011;44941;45.058;20.076;2023-10-08T02:35:19;13.13;;;5.72;;
59159;SDS011;44941;45.058;20.076;2023-10-08T02:37:47;13.43;;;5.05;;
59159;SDS011;44941;45.058;20.076;2023-10-08T02:40:14;13.50;;;4.78;;
59159;SDS011;44941;45.058;20.076;2023-10-08T02:42:53;12.60;;;5.50;;
59159;SDS011;44941;45.058;20.076;2023-10-08T02:45:29;9.13;;;5.13;;
59159;SDS011;44941;45.058;20.076;2023-10-08T02:47:56;12.68;;;5.35;;
59159;SDS011;44941;45.058;20.076;2023-10-08T02:50:22;11.80;;;5.65;;
59159;SDS011;44941;45.058;20.076;2023-10-08T02:52:49;11.77;;;5.15;;
59159;SDS011;44941;45.058;20.076;2023-10-08T02:55:18;10.50;;;4.80;;
59159;SDS011;44941;45.058;20.076;2023-10-08T02:57:59;10.40;;;4.78;;
59159;SDS011;44941;45.058;20.076;2023-10-08T03:00:27;11.88;;;5.20;;
59159;SDS011;44941;45.058;20.076;2023-10-08T03:03:00;13.20;;;5.88;;
59159;SDS011;44941;45.058;20.076;2023-10-08T03:08:01;13.80;;;5.50;;
59159;SDS011;44941;45.058;20.076;2023-10-08T03:10:27;12.85;;;5.07;;
59159;SDS011;44941;45.058;20.076;2023-10-08T03:12:59;13.55;;;5.60;;
59159;SDS011;44941;45.058;20.076;2023-10-08T03:15:32;13.27;;;6.15;;
59159;SDS011;44941;45.058;20.076;2023-10-08T03:18:25;11.80;;;5.32;;
59159;SDS011;44941;45.058;20.076;2023-10-08T03:21:04;14.15;;;5.65;;
59159;SDS011;44941;45.058;20.076;2023-10-08T03:23:31;11.85;;;5.18;;
59159;SDS011;44941;45.058;20.076;2023-10-08T03:26:01;11.18;;;5.65;;
59159;SDS011;44941;45.058;20.076;2023-10-08T03:28:42;15.52;;;6.10;;
59159;SDS011;44941;45.058;20.076;2023-10-08T03:31:09;16.38;;;5.88;;
59159;SDS011;44941;45.058;20.076;2023-10-08T03:33:41;12.95;;;5.72;;
59159;SDS011;44941;45.058;20.076;2023-10-08T03:36:08;14.52;;;5.97;;
59159;SDS011;44941;45.058;20.076;2023-10-08T03:38:48;14.18;;;6.28;;
59159;SDS011;44941;45.058;20.076;2023-10-08T03:41:26;14.25;;;5.68;;
59159;SDS011;44941;45.058;20.076;2023-10-08T03:43:53;11.52;;;5.85;;
59159;SDS011;44941;45.058;20.076;2023-10-08T03:46:37;12.50;;;6.50;;
59159;SDS011;44941;45.058;20.076;2023-10-08T03:49:15;14.35;;;6.10;;
59159;SDS011;44941;45.058;20.076;2023-10-08T03:51:47;13.60;;;5.72;;
59159;SDS011;44941;45.058;20.076;2023-10-08T03:54:16;10.48;;;5.40;;
59159;SDS011;44941;45.058;20.076;2023-10-08T03:56:44;11.17;;;5.73;;
59159;SDS011;44941;45.058;20.076;2023-10-08T03:59:11;13.85;;;6.97;;
59159;SDS011;44941;45.058;20.076;2023-10-08T04:01:41;13.57;;;6.75;;
59159;SDS011;44941;45.058;20.076;2023-10-08T04:04:08;13.88;;;6.40;;
59159;SDS011;44941;45.058;20.076;2023-10-08T04:06:39;14.70;;;6.80;;
59159;SDS011;44941;45.058;20.076;2023-10-08T04:09:12;15.02;;;6.00;;
59159;SDS011;44941;45.058;20.076;2023-10-08T04:11:45;14.38;;;7.00;;
59159;SDS011;44941;45.058;20.076;2023-10-08T04:14:19;12.75;;;6.78;;
59159;SDS011;44941;45.058;20.076;2023-10-08T04:16:45;13.73;;;6.75;;
59159;SDS011;44941;45.058;20.076;2023-10-08T04:19:16;15.07;;;7.22;;
59159;SDS011;44941;45.058;20.076;2023-10-08T04:21:43;13.10;;;6.15;;
59159;SDS011;44941;45.058;20.076;2023-10-08T04:24:09;14.02;;;6.30;;
59159;SDS011;44941;45.058;20.076;2023-10-08T04:26:39;15.40;;;6.53;;
59159;SDS011;44941;45.058;20.076;2023-10-08T04:29:06;14.00;;;6.30;;
59159;SDS011;44941;45.058;20.076;2023-10-08T04:31:32;13.52;;;6.55;;
59159;SDS011;44941;45.058;20.076;2023-10-08T04:34:08;17.67;;;6.80;;
59159;SDS011;44941;45.058;20.076;2023-10-08T04:36:42;14.60;;;6.53;;
59159;SDS011;44941;45.058;20.076;2023-10-08T04:39:10;15.55;;;6.18;;
59159;SDS011;44941;45.058;20.076;2023-10-08T04:41:40;16.95;;;6.60;;
59159;SDS011;44941;45.058;20.076;2023-10-08T04:44:10;14.27;;;6.20;;
59159;SDS011;44941;45.058;20.076;2023-10-08T04:46:42;12.52;;;6.80;;
59159;SDS011;44941;45.058;20.076;2023-10-08T04:49:11;11.50;;;6.57;;
59159;SDS011;44941;45.058;20.076;2023-10-08T04:51:55;12.25;;;6.22;;
59159;SDS011;44941;45.058;20.076;2023-10-08T04:54:25;13.95;;;6.70;;
59159;SDS011;44941;45.058;20.076;2023-10-08T04:56:57;12.45;;;6.55;;
59159;SDS011;44941;45.058;20.076;2023-10-08T04:59:25;15.70;;;6.95;;
59159;SDS011;44941;45.058;20.076;2023-10-08T05:01:57;15.05;;;7.07;;
59159;SDS011;44941;45.058;20.076;2023-10-08T05:04:47;12.48;;;6.30;;
59159;SDS011;44941;45.058;20.076;2023-10-08T05:07:17;13.77;;;6.70;;
59159;SDS011;44941;45.058;20.076;2023-10-08T05:09:49;14.20;;;6.97;;
59159;SDS011;44941;45.058;20.076;2023-10-08T05:12:36;13.52;;;7.35;;
59159;SDS011;44941;45.058;20.076;2023-10-08T05:15:16;15.05;;;8.02;;
59159;SDS011;44941;45.058;20.076;2023-10-08T05:17:45;18.50;;;8.32;;
59159;SDS011;44941;45.058;20.076;2023-10-08T05:20:15;16.38;;;7.95;;
59159;SDS011;44941;45.058;20.076;2023-10-08T05:22:59;15.18;;;7.78;;
59159;SDS011;44941;45.058;20.076;2023-10-08T05:25:45;13.35;;;7.68;;
59159;SDS011;44941;45.058;20.076;2023-10-08T05:28:30;13.07;;;6.88;;
59159;SDS011;44941;45.058;20.076;2023-10-08T05:31:07;13.98;;;6.05;;
59159;SDS011;44941;45.058;20.076;2023-10-08T05:33:39;13.82;;;7.05;;
59159;SDS011;44941;45.058;20.076;2023-10-08T05:36:24;16.05;;;6.07;;
59159;SDS011;44941;45.058;20.076;2023-10-08T05:39:01;10.27;;;5.68;;
59159;SDS011;44941;45.058;20.076;2023-10-08T05:41:44;15.77;;;6.35;;
59159;SDS011;44941;45.058;20.076;2023-10-08T05:44:17;16.58;;;7.53;;
59159;SDS011;44941;45.058;20.076;2023-10-08T05:46:43;13.75;;;6.38;;
59159;SDS011;44941;45.058;20.076;2023-10-08T05:49:19;18.70;;;6.47;;
59159;SDS011;44941;45.058;20.076;2023-10-08T05:52:03;19.20;;;6.80;;
59159;SDS011;44941;45.058;20.076;2023-10-08T05:54:29;13.05;;;6.65;;
59159;SDS011;44941;45.058;20.076;2023-10-08T05:56:57;12.82;;;6.50;;
59159;SDS011;44941;45.058;20.076;2023-10-08T05:59:36;12.52;;;6.07;;
59159;SDS011;44941;45.058;20.076;2023-10-08T06:02:22;11.10;;;4.95;;
59159;SDS011;44941;45.058;20.076;2023-10-08T06:04:58;9.98;;;5.25;;
59159;SDS011;44941;45.058;20.076;2023-10-08T06:07:40;12.15;;;5.10;;
59159;SDS011;44941;45.058;20.076;2023-10-08T06:10:19;10.50;;;4.65;;
59159;SDS011;44941;45.058;20.076;2023-10-08T06:15:47;14.75;;;5.43;;
59159;SDS011;44941;45.058;20.076;2023-10-08T06:20:40;12.45;;;5.47;;
59159;SDS011;44941;45.058;20.076;2023-10-08T06:23:13;13.40;;;6.05;;
59159;SDS011;44941;45.058;20.076;2023-10-08T06:25:43;12.48;;;5.78;;
59159;SDS011;44941;45.058;20.076;2023-10-08T06:28:16;12.27;;;5.75;;
59159;SDS011;44941;45.058;20.076;2023-10-08T06:30:45;14.55;;;6.53;;
59159;SDS011;44941;45.058;20.076;2023-10-08T06:33:12;12.27;;;5.70;;
59159;SDS011;44941;45.058;20.076;2023-10-08T06:35:38;13.15;;;5.85;;
59159;SDS011;44941;45.058;20.076;2023-10-08T06:38:09;15.38;;;6.45;;
59159;SDS011;44941;45.058;20.076;2023-10-08T06:40:36;14.57;;;6.53;;
59159;SDS011;44941;45.058;20.076;2023-10-08T06:43:05;14.55;;;6.43;;
59159;SDS011;44941;45.058;20.076;2023-10-08T06:45:42;12.85;;;5.78;;
59159;SDS011;44941;45.058;20.076;2023-10-08T06:48:09;10.83;;;5.73;;
59159;SDS011;44941;45.058;20.076;2023-10-08T06:50:43;15.13;;;8.43;;
59159;SDS011;44941;45.058;20.076;2023-10-08T06:53:10;13.10;;;6.57;;
59159;SDS011;44941;45.058;20.076;2023-10-08T06:55:39;11.85;;;5.75;;
59159;SDS011;44941;45.058;20.076;2023-10-08T06:58:05;13.82;;;5.20;;
59159;SDS011;44941;45.058;20.076;2023-10-08T07:00:33;12.23;;;5.50;;
59159;SDS011;44941;45.058;20.076;2023-10-08T07:03:12;15.23;;;6.53;;
59159;SDS011;44941;45.058;20.076;2023-10-08T07:05:47;13.57;;;5.03;;
59159;SDS011;44941;45.058;20.076;2023-10-08T07:08:27;15.52;;;6.28;;
59159;SDS011;44941;45.058;20.076;2023-10-08T07:10:56;14.82;;;6.25;;
59159;SDS011;44941;45.058;20.076;2023-10-08T07:15:51;15.27;;;5.95;;
59159;SDS011;44941;45.058;20.076;2023-10-08T07:18:17;12.80;;;6.70;;
59159;SDS011;44941;45.058;20.076;2023-10-08T07:20:51;14.52;;;5.85;;
59159;SDS011;44941;45.058;20.076;2023-10-08T07:23:22;11.18;;;5.90;;
59159;SDS011;44941;45.058;20.076;2023-10-08T07:25:58;12.77;;;5.60;;
59159;SDS011;44941;45.058;20.076;2023-10-08T07:28:40;16.80;;;5.30;;
59159;SDS011;44941;45.058;20.076;2023-10-08T07:31:16;16.10;;;5.95;;
59159;SDS011;44941;45.058;20.076;2023-10-08T07:33:45;14.88;;;6.03;;
59159;SDS011;44941;45.058;20.076;2023-10-08T07:36:12;12.95;;;5.60;;
59159;SDS011;44941;45.058;20.076;2023-10-08T07:38:39;14.65;;;5.88;;
59159;SDS011;44941;45.058;20.076;2023-10-08T07:41:12;10.45;;;5.15;;
59159;SDS011;44941;45.058;20.076;2023-10-08T07:43:42;16.13;;;5.53;;
59159;SDS011;44941;45.058;20.076;2023-10-08T07:46:09;12.60;;;5.60;;
59159;SDS011;44941;45.058;20.076;2023-10-08T07:48:35;23.13;;;6.03;;
59159;SDS011;44941;45.058;20.076;2023-10-08T07:51:01;34.92;;;6.28;;
59159;SDS011;44941;45.058;20.076;2023-10-08T07:53:28;39.38;;;7.70;;
59159;SDS011;44941;45.058;20.076;2023-10-08T07:56:04;22.00;;;6.35;;
59159;SDS011;44941;45.058;20.076;2023-10-08T07:58:32;15.52;;;5.65;;
59159;SDS011;44941;45.058;20.076;2023-10-08T08:01:05;11.25;;;4.95;;
59159;SDS011;44941;45.058;20.076;2023-10-08T08:03:32;12.52;;;4.93;;
59159;SDS011;44941;45.058;20.076;2023-10-08T08:05:59;12.75;;;4.68;;
59159;SDS011;44941;45.058;20.076;2023-10-08T08:08:26;13.73;;;5.43;;
59159;SDS011;44941;45.058;20.076;2023-10-08T08:10:53;11.30;;;5.85;;
59159;SDS011;44941;45.058;20.076;2023-10-08T08:13:23;18.20;;;6.43;;
59159;SDS011;44941;45.058;20.076;2023-10-08T08:15:53;12.13;;;5.75;;
59159;SDS011;44941;45.058;20.076;2023-10-08T08:18:23;14.18;;;5.65;;
59159;SDS011;44941;45.058;20.076;2023-10-08T08:20:49;14.55;;;6.18;;
59159;SDS011;44941;45.058;20.076;2023-10-08T08:23:16;19.98;;;6.80;;
59159;SDS011;44941;45.058;20.076;2023-10-08T08:25:42;13.82;;;6.40;;
59159;SDS011;44941;45.058;20.076;2023-10-08T08:28:31;15.57;;;7.60;;
59159;SDS011;44941;45.058;20.076;2023-10-08T08:31:01;23.27;;;8.75;;
59159;SDS011;44941;45.058;20.076;2023-10-08T08:33:29;19.80;;;9.00;;
59159;SDS011;44941;45.058;20.076;2023-10-08T08:36:15;18.50;;;8.15;;
59159;SDS011;44941;45.058;20.076;2023-10-08T08:38:42;17.85;;;8.23;;
59159;SDS011;44941;45.058;20.076;2023-10-08T08:41:08;17.45;;;7.53;;
59159;SDS011;44941;45.058;20.076;2023-10-08T08:43:37;19.75;;;7.55;;
59159;SDS011;44941;45.058;20.076;2023-10-08T08:46:09;19.58;;;7.43;;
59159;SDS011;44941;45.058;20.076;2023-10-08T08:48:38;32.78;;;10.15;;
59159;SDS011;44941;45.058;20.076;2023-10-08T08:51:09;29.80;;;10.77;;
59159;SDS011;44941;45.058;20.076;2023-10-08T08:53:36;29.90;;;11.77;;
59159;SDS011;44941;45.058;20.076;2023-10-08T08:56:02;25.73;;;11.55;;
59159;SDS011;44941;45.058;20.076;2023-10-08T08:58:32;56.67;;;12.55;;
59159;SDS011;44941;45.058;20.076;2023-10-08T09:00:59;20.38;;;7.35;;
59159;SDS011;44941;45.058;20.076;2023-10-08T09:03:26;20.63;;;6.22;;
59159;SDS011;44941;45.058;20.076;2023-10-08T09:05:58;19.92;;;6.18;;
59159;SDS011;44941;45.058;20.076;2023-10-08T09:08:28;19.23;;;8.48;;
59159;SDS011;44941;45.058;20.076;2023-10-08T09:10:58;26.80;;;8.10;;
59159;SDS011;44941;45.058;20.076;2023-10-08T09:13:30;30.45;;;11.50;;
59159;SDS011;44941;45.058;20.076;2023-10-08T09:16:17;26.17;;;10.70;;
59159;SDS011;44941;45.058;20.076;2023-10-08T09:18:49;21.48;;;11.23;;
59159;SDS011;44941;45.058;20.076;2023-10-08T09:21:17;37.30;;;7.72;;
59159;SDS011;44941;45.058;20.076;2023-10-08T09:23:44;18.65;;;7.32;;
59159;SDS011;44941;45.058;20.076;2023-10-08T09:26:12;22.75;;;9.15;;
59159;SDS011;44941;45.058;20.076;2023-10-08T09:28:48;24.13;;;9.70;;
59159;SDS011;44941;45.058;20.076;2023-10-08T09:31:16;28.25;;;9.90;;
59159;SDS011;44941;45.058;20.076;2023-10-08T09:33:53;29.10;;;11.35;;
59159;SDS011;44941;45.058;20.076;2023-10-08T09:36:20;21.98;;;8.32;;
59159;SDS011;44941;45.058;20.076;2023-10-08T09:41:14;25.60;;;8.38;;
59159;SDS011;44941;45.058;20.076;2023-10-08T09:43:40;22.80;;;11.20;;
59159;SDS011;44941;45.058;20.076;2023-10-08T09:48:34;21.35;;;10.05;;
59159;SDS011;44941;45.058;20.076;2023-10-08T09:51:02;25.42;;;14.98;;
59159;SDS011;44941;45.058;20.076;2023-10-08T09:53:43;27.63;;;14.90;;
59159;SDS011;44941;45.058;20.076;2023-10-08T09:56:14;28.90;;;12.77;;
59159;SDS011;44941;45.058;20.076;2023-10-08T09:58:42;26.02;;;12.63;;
59159;SDS011;44941;45.058;20.076;2023-10-08T10:01:09;25.75;;;10.35;;
59159;SDS011;44941;45.058;20.076;2023-10-08T10:03:36;17.75;;;8.90;;
59159;SDS011;44941;45.058;20.076;2023-10-08T10:06:02;25.67;;;9.95;;
59159;SDS011;44941;45.058;20.076;2023-10-08T10:08:35;18.75;;;8.25;;
59159;SDS011;44941;45.058;20.076;2023-10-08T10:11:01;24.00;;;9.75;;
59159;SDS011;44941;45.058;20.076;2023-10-08T10:13:28;20.52;;;7.75;;
59159;SDS011;44941;45.058;20.076;2023-10-08T10:15:54;20.00;;;7.88;;
59159;SDS011;44941;45.058;20.076;2023-10-08T10:23:38;22.13;;;6.43;;
59159;SDS011;44941;45.058;20.076;2023-10-08T10:34:10;14.65;;;3.65;;
59159;SDS011;44941;45.058;20.076;2023-10-08T10:39:05;33.47;;;4.50;;
59159;SDS011;44941;45.058;20.076;2023-10-08T10:42:04;16.50;;;3.75;;
59159;SDS011;44941;45.058;20.076;2023-10-08T10:44:31;28.73;;;3.83;;
59159;SDS011;44941;45.058;20.076;2023-10-08T10:46:58;25.27;;;4.20;;
59159;SDS011;44941;45.058;20.076;2023-10-08T10:49:45;22.02;;;3.78;;
59159;SDS011;44941;45.058;20.076;2023-10-08T10:52:30;23.25;;;4.13;;
59159;SDS011;44941;45.058;20.076;2023-10-08T10:55:03;17.17;;;3.45;;
59159;SDS011;44941;45.058;20.076;2023-10-08T10:57:39;21.42;;;4.13;;
59159;SDS011;44941;45.058;20.076;2023-10-08T11:00:07;15.07;;;3.85;;
59159;SDS011;44941;45.058;20.076;2023-10-08T11:02:52;15.13;;;3.22;;
59159;SDS011;44941;45.058;20.076;2023-10-08T11:05:24;20.27;;;3.13;;
59159;SDS011;44941;45.058;20.076;2023-10-08T11:07:56;14.80;;;4.07;;
59159;SDS011;44941;45.058;20.076;2023-10-08T11:10:30;13.70;;;3.30;;
59159;SDS011;44941;45.058;20.076;2023-10-08T11:12:57;14.98;;;4.07;;
59159;SDS011;44941;45.058;20.076;2023-10-08T11:15:26;12.82;;;4.20;;
59159;SDS011;44941;45.058;20.076;2023-10-08T11:18:06;16.02;;;4.07;;
59159;SDS011;44941;45.058;20.076;2023-10-08T11:20:33;17.75;;;4.80;;
59159;SDS011;44941;45.058;20.076;2023-10-08T11:23:04;14.68;;;3.35;;
59159;SDS011;44941;45.058;20.076;2023-10-08T11:28:08;15.68;;;3.70;;
59159;SDS011;44941;45.058;20.076;2023-10-08T11:30:37;16.30;;;4.22;;
59159;SDS011;44941;45.058;20.076;2023-10-08T11:33:07;18.45;;;3.78;;
59159;SDS011;44941;45.058;20.076;2023-10-08T11:35:36;17.85;;;3.97;;
59159;SDS011;44941;45.058;20.076;2023-10-08T11:38:17;12.80;;;3.47;;
59159;SDS011;44941;45.058;20.076;2023-10-08T11:40:47;17.73;;;4.03;;
59159;SDS011;44941;45.058;20.076;2023-10-08T11:43:22;23.13;;;3.22;;
59159;SDS011;44941;45.058;20.076;2023-10-08T11:45:48;43.83;;;5.47;;
59159;SDS011;44941;45.058;20.076;2023-10-08T11:48:14;29.25;;;4.38;;
59159;SDS011;44941;45.058;20.076;2023-10-08T11:50:47;28.95;;;3.30;;
59159;SDS011;44941;45.058;20.076;2023-10-08T11:53:15;26.20;;;3.22;;
59159;SDS011;44941;45.058;20.076;2023-10-08T11:55:44;35.90;;;4.50;;
59159;SDS011;44941;45.058;20.076;2023-10-08T11:58:13;32.80;;;3.53;;
59159;SDS011;44941;45.058;20.076;2023-10-08T12:00:43;30.95;;;3.75;;
59159;SDS011;44941;45.058;20.076;2023-10-08T12:03:13;38.25;;;3.75;;
59159;SDS011;44941;45.058;20.076;2023-10-08T12:05:51;37.20;;;4.85;;
59159;SDS011;44941;45.058;20.076;2023-10-08T12:08:24;33.83;;;4.97;;
59159;SDS011;44941;45.058;20.076;2023-10-08T12:10:52;50.92;;;4.80;;
59159;SDS011;44941;45.058;20.076;2023-10-08T12:13:25;46.63;;;4.40;;
59159;SDS011;44941;45.058;20.076;2023-10-08T12:15:53;35.45;;;4.32;;
59159;SDS011;44941;45.058;20.076;2023-10-08T12:18:42;35.17;;;4.40;;
59159;SDS011;44941;45.058;20.076;2023-10-08T12:21:11;36.20;;;5.43;;
59159;SDS011;44941;45.058;20.076;2023-10-08T12:23:40;29.20;;;3.97;;
59159;SDS011;44941;45.058;20.076;2023-10-08T12:26:08;34.28;;;4.32;;
59159;SDS011;44941;45.058;20.076;2023-10-08T12:28:37;44.63;;;5.47;;
59159;SDS011;44941;45.058;20.076;2023-10-08T12:31:04;37.25;;;5.20;;
59159;SDS011;44941;45.058;20.076;2023-10-08T12:33:30;56.92;;;5.90;;
59159;SDS011;44941;45.058;20.076;2023-10-08T12:35:56;47.35;;;5.65;;
59159;SDS011;44941;45.058;20.076;2023-10-08T12:38:23;47.15;;;5.10;;
59159;SDS011;44941;45.058;20.076;2023-10-08T12:40:53;32.20;;;4.82;;
59159;SDS011;44941;45.058;20.076;2023-10-08T12:43:22;35.58;;;4.38;;
59159;SDS011;44941;45.058;20.076;2023-10-08T12:45:52;32.40;;;4.72;;
59159;SDS011;44941;45.058;20.076;2023-10-08T12:48:22;42.75;;;5.43;;
59159;SDS011;44941;45.058;20.076;2023-10-08T12:50:49;38.33;;;4.75;;
59159;SDS011;44941;45.058;20.076;2023-10-08T12:53:25;34.17;;;6.25;;
59159;SDS011;44941;45.058;20.076;2023-10-08T12:56:04;32.45;;;4.00;;
59159;SDS011;44941;45.058;20.076;2023-10-08T12:58:31;32.83;;;6.57;;
59159;SDS011;44941;45.058;20.076;2023-10-08T13:01:03;19.17;;;4.32;;
59159;SDS011;44941;45.058;20.076;2023-10-08T13:03:32;20.77;;;3.80;;
59159;SDS011;44941;45.058;20.076;2023-10-08T13:05:58;22.60;;;3.60;;
59159;SDS011;44941;45.058;20.076;2023-10-08T13:08:30;17.42;;;5.30;;
59159;SDS011;44941;45.058;20.076;2023-10-08T13:11:00;42.33;;;13.73;;
59159;SDS011;44941;45.058;20.076;2023-10-08T13:13:29;17.33;;;6.10;;
59159;SDS011;44941;45.058;20.076;2023-10-08T13:15:57;26.05;;;7.43;;
59159;SDS011;44941;45.058;20.076;2023-10-08T13:18:27;28.23;;;4.03;;
59159;SDS011;44941;45.058;20.076;2023-10-08T13:20:54;16.83;;;3.03;;
59159;SDS011;44941;45.058;20.076;2023-10-08T13:23:22;24.33;;;3.47;;
59159;SDS011;44941;45.058;20.076;2023-10-08T13:25:55;16.30;;;3.17;;
59159;SDS011;44941;45.058;20.076;2023-10-08T13:28:23;21.52;;;3.88;;
59159;SDS011;44941;45.058;20.076;2023-10-08T13:30:53;33.45;;;4.60;;
59159;SDS011;44941;45.058;20.076;2023-10-08T13:33:22;19.45;;;3.17;;
59159;SDS011;44941;45.058;20.076;2023-10-08T13:35:48;25.85;;;5.90;;
59159;SDS011;44941;45.058;20.076;2023-10-08T13:38:18;19.15;;;3.67;;
59159;SDS011;44941;45.058;20.076;2023-10-08T13:40:51;20.98;;;6.20;;
59159;SDS011;44941;45.058;20.076;2023-10-08T13:43:53;32.28;;;3.25;;
59159;SDS011;44941;45.058;20.076;2023-10-08T13:46:27;32.20;;;4.25;;
59159;SDS011;44941;45.058;20.076;2023-10-08T13:48:53;19.30;;;3.83;;
59159;SDS011;44941;45.058;20.076;2023-10-08T13:51:20;16.10;;;3.20;;
59159;SDS011;44941;45.058;20.076;2023-10-08T13:56:18;18.15;;;3.47;;
59159;SDS011;44941;45.058;20.076;2023-10-08T13:58:49;17.63;;;4.32;;
59159;SDS011;44941;45.058;20.076;2023-10-08T14:01:17;18.63;;;4.72;;
59159;SDS011;44941;45.058;20.076;2023-10-08T14:03:48;25.30;;;6.57;;
59159;SDS011;44941;45.058;20.076;2023-10-08T14:06:18;25.60;;;8.27;;
59159;SDS011;44941;45.058;20.076;2023-10-08T14:08:45;22.63;;;9.73;;
59159;SDS011;44941;45.058;20.076;2023-10-08T14:11:19;16.05;;;4.97;;
59159;SDS011;44941;45.058;20.076;2023-10-08T14:13:49;19.40;;;3.53;;
59159;SDS011;44941;45.058;20.076;2023-10-08T14:16:16;20.73;;;3.42;;
59159;SDS011;44941;45.058;20.076;2023-10-08T14:18:43;18.73;;;3.30;;
59159;SDS011;44941;45.058;20.076;2023-10-08T14:21:15;19.83;;;3.50;;
59159;SDS011;44941;45.058;20.076;2023-10-08T14:23:43;18.83;;;4.50;;
59159;SDS011;44941;45.058;20.076;2023-10-08T14:26:09;17.75;;;5.80;;
59159;SDS011;44941;45.058;20.076;2023-10-08T14:28:36;31.70;;;9.65;;
59159;SDS011;44941;45.058;20.076;2023-10-08T14:31:23;19.48;;;6.05;;
59159;SDS011;44941;45.058;20.076;2023-10-08T14:33:50;20.77;;;4.32;;
59159;SDS011;44941;45.058;20.076;2023-10-08T14:36:31;24.63;;;3.58;;
59159;SDS011;44941;45.058;20.076;2023-10-08T14:39:17;25.70;;;3.45;;
59159;SDS011;44941;45.058;20.076;2023-10-08T14:42:02;17.80;;;2.78;;
59159;SDS011;44941;45.058;20.076;2023-10-08T14:44:47;24.35;;;3.08;;
59159;SDS011;44941;45.058;20.076;2023-10-08T14:47:15;20.17;;;3.67;;
59159;SDS011;44941;45.058;20.076;2023-10-08T14:49:41;15.95;;;3.10;;
59159;SDS011;44941;45.058;20.076;2023-10-08T14:52:08;9.95;;;2.63;;
59159;SDS011;44941;45.058;20.076;2023-10-08T14:54:34;20.92;;;4.28;;
59159;SDS011;44941;45.058;20.076;2023-10-08T14:57:00;13.98;;;3.40;;
59159;SDS011;44941;45.058;20.076;2023-10-08T14:59:28;13.57;;;3.38;;
59159;SDS011;44941;45.058;20.076;2023-10-08T15:01:55;14.50;;;3.58;;
59159;SDS011;44941;45.058;20.076;2023-10-08T15:06:51;13.70;;;3.30;;
59159;SDS011;44941;45.058;20.076;2023-10-08T15:09:17;17.83;;;3.22;;
59159;SDS011;44941;45.058;20.076;2023-10-08T15:11:48;15.50;;;2.72;;
59159;SDS011;44941;45.058;20.076;2023-10-08T15:14:16;23.13;;;2.92;;
59159;SDS011;44941;45.058;20.076;2023-10-08T15:16:44;10.88;;;2.70;;
59159;SDS011;44941;45.058;20.076;2023-10-08T15:19:12;18.63;;;2.92;;
59159;SDS011;44941;45.058;20.076;2023-10-08T15:21:40;11.25;;;2.47;;
59159;SDS011;44941;45.058;20.076;2023-10-08T15:24:08;17.17;;;3.13;;
59159;SDS011;44941;45.058;20.076;2023-10-08T15:26:37;19.40;;;4.50;;